createdAt,value
2018-04-08T06:20:25.889Z,1008.21
2018-04-08T06:21:06.444Z,1008.17
2018-04-08T06:21:46.995Z,1008.15
2018-04-08T06:22:27.554Z,1008.21
2018-04-08T06:23:08.128Z,1008.19
2018-04-08T06:23:48.713Z,1008.18
2018-04-08T06:24:29.285Z,1008.17
2018-04-08T06:25:09.847Z,1008.17
2018-04-08T06:25:50.507Z,1008.16
2018-04-08T06:26:31.060Z,1008.19
2018-04-08T06:27:11.701Z,1008.18
2018-04-08T06:27:52.263Z,1008.19
2018-04-08T06:28:32.885Z,1008.19
2018-04-08T06:29:13.458Z,1008.19
2018-04-08T06:29:54.003Z,1008.22
2018-04-08T06:30:34.566Z,1008.21
2018-04-08T06:31:15.118Z,1008.21
2018-04-08T06:31:55.799Z,1008.25
2018-04-08T06:32:36.353Z,1008.2
2018-04-08T06:33:16.917Z,1008.25
2018-04-08T06:33:57.621Z,1008.29
2018-04-08T06:34:38.182Z,1008.31
2018-04-08T06:35:18.750Z,1008.28
2018-04-08T06:35:59.308Z,1008.34
2018-04-08T06:36:39.866Z,1008.31
2018-04-08T06:37:20.421Z,1008.36
2018-04-08T06:38:01.000Z,1008.33
2018-04-08T06:38:41.574Z,1008.34
2018-04-08T06:39:22.151Z,1008.36
2018-04-08T06:40:02.782Z,1008.33
2018-04-08T06:40:43.336Z,1008.36
2018-04-08T06:41:23.976Z,1008.35
2018-04-08T06:42:04.511Z,1008.37
2018-04-08T06:42:45.069Z,1008.33
2018-04-08T06:43:25.635Z,1008.35
2018-04-08T06:44:06.219Z,1008.4
2018-04-08T06:44:46.885Z,1008.39
2018-04-08T06:45:27.528Z,1008.38
2018-04-08T06:46:08.003Z,1008.4
2018-04-08T06:46:48.571Z,1008.4
2018-04-08T06:47:29.136Z,1008.31
2018-04-08T06:48:09.709Z,1008.42
2018-04-08T06:48:50.274Z,1008.37
2018-04-08T06:49:30.835Z,1008.38
2018-04-08T06:50:11.378Z,1008.37
2018-04-08T06:50:51.947Z,1008.4
2018-04-08T06:51:32.585Z,1008.38
2018-04-08T06:52:13.140Z,1008.32
2018-04-08T06:52:53.920Z,1008.34
2018-04-08T06:53:34.501Z,1008.37
2018-04-08T06:54:15.076Z,1008.36
2018-04-08T06:54:55.669Z,1008.38
2018-04-08T06:55:36.324Z,1008.39
2018-04-08T06:56:16.879Z,1008.41
2018-04-08T06:56:57.449Z,1008.4
2018-04-08T06:57:38.005Z,1008.42
2018-04-08T06:58:18.601Z,1008.36
2018-04-08T06:58:59.147Z,1008.34
2018-04-08T06:59:39.737Z,1008.36
2018-04-08T07:00:20.305Z,1008.38
2018-04-08T07:01:00.911Z,1008.42
2018-04-08T07:01:41.451Z,1008.41
2018-04-08T07:02:22.017Z,1008.39
2018-04-08T07:03:02.574Z,1008.37
2018-04-08T07:03:43.112Z,1008.37
2018-04-08T07:04:23.722Z,1008.42
2018-04-08T07:05:04.282Z,1008.42
2018-04-08T07:05:44.836Z,1008.34
2018-04-08T07:06:25.532Z,1008.38
2018-04-08T07:07:06.145Z,1008.41
2018-04-08T07:07:46.660Z,1008.38
2018-04-08T07:08:27.247Z,1008.36
2018-04-08T07:09:07.825Z,1008.38
2018-04-08T07:09:48.398Z,1008.36
2018-04-08T07:10:28.964Z,1008.33
2018-04-08T07:11:09.519Z,1008.36
2018-04-08T07:11:50.098Z,1008.39
2018-04-08T07:12:30.666Z,1008.38
2018-04-08T07:13:11.372Z,1008.32
2018-04-08T07:13:51.941Z,1008.34
2018-04-08T07:14:32.655Z,1008.37
2018-04-08T07:15:13.228Z,1008.32
2018-04-08T07:15:53.844Z,1008.41
2018-04-08T07:16:34.403Z,1008.38
2018-04-08T07:17:15.019Z,1008.33
2018-04-08T07:17:55.624Z,1008.37
2018-04-08T07:18:36.221Z,1008.33
2018-04-08T07:19:16.829Z,1008.37
2018-04-08T07:19:57.390Z,1008.34
2018-04-08T07:20:37.941Z,1008.34
2018-04-08T07:21:18.558Z,1008.32
2018-04-08T07:21:59.134Z,1008.4
2018-04-08T07:22:39.734Z,1008.39
2018-04-08T07:23:20.304Z,1008.36
2018-04-08T07:24:00.910Z,1008.31
2018-04-08T07:24:41.565Z,1008.33
2018-04-08T07:25:22.077Z,1008.33
2018-04-08T07:26:02.649Z,1008.39
2018-04-08T07:26:43.198Z,1008.36
2018-04-08T07:27:23.834Z,1008.33
2018-04-08T07:28:04.404Z,1008.36
2018-04-08T07:28:45.149Z,1008.39
2018-04-08T07:29:25.718Z,1008.37
2018-04-08T07:30:06.375Z,1008.37
2018-04-08T07:30:46.925Z,1008.32
2018-04-08T07:31:27.493Z,1008.36
2018-04-08T07:32:08.127Z,1008.33
2018-04-08T07:32:48.700Z,1008.29
2018-04-08T07:33:29.259Z,1008.31
2018-04-08T07:34:09.883Z,1008.33
2018-04-08T07:34:50.446Z,1008.29
2018-04-08T07:35:31.005Z,1008.3
2018-04-08T07:36:11.591Z,1008.31
2018-04-08T07:36:52.213Z,1008.3
2018-04-08T07:37:32.793Z,1008.32
2018-04-08T07:38:13.411Z,1008.27
2018-04-08T07:38:54.112Z,1008.34
2018-04-08T07:39:34.725Z,1008.34
2018-04-08T07:40:15.414Z,1008.3
2018-04-08T07:40:56.007Z,1008.27
2018-04-08T07:41:36.612Z,1008.33
2018-04-08T07:42:17.189Z,1008.39
2018-04-08T07:42:58.033Z,1008.31
2018-04-08T07:43:38.625Z,1008.34
2018-04-08T07:44:19.243Z,1008.36
2018-04-08T07:44:59.864Z,1008.34
2018-04-08T07:45:40.403Z,1008.34
2018-04-08T07:46:20.948Z,1008.39
2018-04-08T07:47:01.663Z,1008.37
2018-04-08T07:47:42.379Z,1008.34
2018-04-08T07:48:23.006Z,1008.24
2018-04-08T07:49:03.546Z,1008.33
2018-04-08T07:49:44.240Z,1008.39
2018-04-08T07:50:24.825Z,1008.34
2018-04-08T07:51:05.404Z,1008.32
2018-04-08T07:51:45.975Z,1008.39
2018-04-08T07:52:26.572Z,1008.38
2018-04-08T07:53:07.202Z,1008.37
2018-04-08T07:53:48.142Z,1008.32
2018-04-08T07:54:28.381Z,1008.31
2018-04-08T07:55:09.001Z,1008.36
2018-04-08T07:55:49.568Z,1008.31
2018-04-08T07:56:30.144Z,1008.36
2018-04-08T07:57:10.725Z,1008.29
2018-04-08T07:57:51.313Z,1008.33
2018-04-08T07:58:31.903Z,1008.32
2018-04-08T07:59:12.484Z,1008.36
2018-04-08T07:59:53.230Z,1008.34
2018-04-08T08:00:33.804Z,1008.36
2018-04-08T08:01:14.390Z,1008.35
2018-04-08T08:01:54.947Z,1008.32
2018-04-08T08:02:35.534Z,1008.29
2018-04-08T08:03:16.108Z,1008.24
2018-04-08T08:03:56.754Z,1008.34
2018-04-08T08:04:37.285Z,1008.26
2018-04-08T08:05:18.106Z,1008.29
2018-04-08T08:05:58.764Z,1008.31
2018-04-08T08:06:39.382Z,1008.34
2018-04-08T08:07:19.973Z,1008.3
2018-04-08T08:08:00.532Z,1008.38
2018-04-08T08:08:41.101Z,1008.36
2018-04-08T08:09:21.696Z,1008.34
2018-04-08T08:10:02.440Z,1008.32
2018-04-08T08:10:43.055Z,1008.32
2018-04-08T08:11:23.644Z,1008.27
2018-04-08T08:12:04.342Z,1008.3
2018-04-08T08:12:44.958Z,1008.31
2018-04-08T08:13:25.526Z,1008.28
2018-04-08T08:14:06.083Z,1008.25
2018-04-08T08:14:46.672Z,1008.25
2018-04-08T08:15:27.270Z,1008.2
2018-04-08T08:16:07.868Z,1008.2
2018-04-08T08:16:48.422Z,1008.24
2018-04-08T08:17:29.038Z,1008.23
2018-04-08T08:18:09.602Z,1008.18
2018-04-08T08:18:50.219Z,1008.17
2018-04-08T08:19:30.818Z,1008.26
2018-04-08T08:20:11.443Z,1008.21
2018-04-08T08:20:51.983Z,1008.19
2018-04-08T08:21:32.571Z,1008.17
2018-04-08T08:22:13.129Z,1008.21
2018-04-08T08:22:53.690Z,1008.17
2018-04-08T08:23:34.245Z,1008.16
2018-04-08T08:24:14.799Z,1008.19
2018-04-08T08:24:55.372Z,1008.14
2018-04-08T08:25:35.939Z,1008.12
2018-04-08T08:26:16.718Z,1008.15
2018-04-08T08:26:57.700Z,1008.2
2018-04-08T08:27:38.353Z,1008.09
2018-04-08T08:28:19.129Z,1008.13
2018-04-08T08:28:59.733Z,1008.23
2018-04-08T08:29:40.305Z,1008.08
2018-04-08T08:30:20.985Z,1008.12
2018-04-08T08:31:01.793Z,1008.11
2018-04-08T08:31:42.396Z,1008.14
2018-04-08T08:32:23.079Z,1008.11
2018-04-08T08:33:03.805Z,1008.03
2018-04-08T08:33:44.446Z,1008.08
2018-04-08T08:34:25.052Z,1008.03
2018-04-08T08:35:06.278Z,1008.02
2018-04-08T08:35:46.831Z,1008.07
2018-04-08T08:36:27.389Z,1008.02
2018-04-08T08:37:07.948Z,1008.05
2018-04-08T08:37:48.518Z,1007.99
2018-04-08T08:38:29.087Z,1008.07
2018-04-08T08:39:09.716Z,1008.1
2018-04-08T08:39:50.276Z,1008.01
2018-04-08T08:40:30.849Z,1008.08
2018-04-08T08:41:11.428Z,1008.03
2018-04-08T08:41:52.037Z,1008.03
2018-04-08T08:42:32.603Z,1007.92
2018-04-08T08:43:13.182Z,1007.94
2018-04-08T08:43:53.731Z,1007.95
2018-04-08T08:44:34.301Z,1007.92
2018-04-08T08:45:14.856Z,1007.91
2018-04-08T08:45:55.433Z,1007.91
2018-04-08T08:46:35.999Z,1007.95
2018-04-08T08:47:16.580Z,1007.92
2018-04-08T08:47:57.143Z,1007.95
2018-04-08T08:48:37.711Z,1007.98
2018-04-08T08:49:18.262Z,1007.86
2018-04-08T08:49:58.831Z,1007.81
2018-04-08T08:50:39.409Z,1007.93
2018-04-08T08:51:19.971Z,1007.86
2018-04-08T08:52:00.559Z,1007.84
2018-04-08T08:52:41.106Z,1007.83
2018-04-08T08:53:21.664Z,1007.8
2018-04-08T08:54:02.215Z,1007.81
2018-04-08T08:54:42.759Z,1007.8
2018-04-08T08:55:23.322Z,1007.79
2018-04-08T08:56:03.920Z,1007.76
2018-04-08T08:56:44.480Z,1007.83
2018-04-08T08:57:25.048Z,1007.8
2018-04-08T08:58:05.633Z,1007.77
2018-04-08T08:58:46.190Z,1007.78
2018-04-08T08:59:26.767Z,1007.78
2018-04-08T09:00:07.328Z,1007.8
2018-04-08T09:00:47.892Z,1007.74
2018-04-08T09:01:28.483Z,1007.81
2018-04-08T09:02:09.012Z,1007.77
2018-04-08T09:02:49.578Z,1007.79
2018-04-08T09:03:30.188Z,1007.78
2018-04-08T09:04:10.783Z,1007.74
2018-04-08T09:04:51.350Z,1007.75
2018-04-08T09:05:31.920Z,1007.76
2018-04-08T09:06:12.503Z,1007.68
2018-04-08T09:06:53.088Z,1007.73
2018-04-08T09:07:33.639Z,1007.73
2018-04-08T09:08:14.216Z,1007.68
2018-04-08T09:08:54.782Z,1007.76
2018-04-08T09:09:35.403Z,1007.73
2018-04-08T09:10:15.916Z,1007.72
2018-04-08T09:10:56.470Z,1007.69
2018-04-08T09:11:37.013Z,1007.66
2018-04-08T09:12:17.588Z,1007.68
2018-04-08T09:12:58.147Z,1007.69
2018-04-08T09:13:38.703Z,1007.63
2018-04-08T09:14:19.228Z,1007.64
2018-04-08T09:14:59.781Z,1007.64
2018-04-08T09:15:40.346Z,1007.6
2018-04-08T09:16:20.904Z,1007.69
2018-04-08T09:17:01.453Z,1007.66
2018-04-08T09:17:42.046Z,1007.67
2018-04-08T09:18:22.615Z,1007.65
2018-04-08T09:19:03.216Z,1007.6
2018-04-08T09:19:43.796Z,1007.68
2018-04-08T09:20:24.381Z,1007.66
2018-04-08T09:21:04.938Z,1007.76
2018-04-08T09:21:45.514Z,1007.63
2018-04-08T09:22:26.065Z,1007.68
2018-04-08T09:23:06.668Z,1007.66
2018-04-08T09:23:47.285Z,1007.65
2018-04-08T09:24:27.840Z,1007.65
2018-04-08T09:25:08.415Z,1007.7
2018-04-08T09:25:48.940Z,1007.61
2018-04-08T09:26:29.570Z,1007.64
2018-04-08T09:27:10.033Z,1007.71
2018-04-08T09:27:50.583Z,1007.68
2018-04-08T09:28:31.122Z,1007.57
2018-04-08T09:29:11.721Z,1007.65
2018-04-08T09:29:52.273Z,1007.66
2018-04-08T09:30:32.886Z,1007.55
2018-04-08T09:31:13.456Z,1007.64
2018-04-08T09:31:54.029Z,1007.56
2018-04-08T09:32:34.593Z,1007.62
2018-04-08T09:33:15.168Z,1007.62
2018-04-08T09:33:55.742Z,1007.6
2018-04-08T09:34:36.364Z,1007.59
2018-04-08T09:35:16.941Z,1007.54
2018-04-08T09:35:57.508Z,1007.55
2018-04-08T09:36:38.082Z,1007.59
2018-04-08T09:37:18.635Z,1007.56
2018-04-08T09:37:59.195Z,1007.57
2018-04-08T09:38:39.757Z,1007.54
2018-04-08T09:39:20.303Z,1007.57
2018-04-08T09:40:00.875Z,1007.52
2018-04-08T09:40:41.449Z,1007.54
2018-04-08T09:41:22.188Z,1007.53
2018-04-08T09:42:02.909Z,1007.53
2018-04-08T09:42:43.757Z,1007.48
2018-04-08T09:43:24.529Z,1007.49
2018-04-08T09:44:05.471Z,1007.6
2018-04-08T09:44:47.091Z,1007.52
2018-04-08T09:45:28.019Z,1007.51
2018-04-08T09:46:08.909Z,1007.55
2018-04-08T09:46:49.793Z,1007.44
2018-04-08T09:47:30.389Z,1007.45
2018-04-08T09:48:11.222Z,1007.51
2018-04-08T09:48:52.040Z,1007.39
2018-04-08T09:49:32.843Z,1007.42
2018-04-08T09:50:13.370Z,1007.42
2018-04-08T09:50:53.968Z,1007.41
2018-04-08T09:51:34.538Z,1007.39
2018-04-08T09:52:15.141Z,1007.36
2018-04-08T09:52:55.869Z,1007.44
2018-04-08T09:53:36.428Z,1007.38
2018-04-08T09:54:17.107Z,1007.38
2018-04-08T09:54:57.892Z,1007.52
2018-04-08T09:55:38.439Z,1007.49
2018-04-08T09:56:19.200Z,1007.49
2018-04-08T09:56:59.905Z,1007.43
2018-04-08T09:57:40.485Z,1007.5
2018-04-08T09:58:21.047Z,1007.37
2018-04-08T09:59:01.894Z,1007.44
2018-04-08T09:59:42.453Z,1007.42
2018-04-08T10:00:23.120Z,1007.38
2018-04-08T10:01:03.672Z,1007.34
2018-04-08T10:01:44.341Z,1007.37
2018-04-08T10:02:25.032Z,1007.43
2018-04-08T10:03:06.163Z,1007.38
2018-04-08T10:03:47.019Z,1007.37
2018-04-08T10:04:27.571Z,1007.36
2018-04-08T10:05:08.155Z,1007.36
2018-04-08T10:05:48.712Z,1007.36
2018-04-08T10:06:29.869Z,1007.43
2018-04-08T10:07:10.450Z,1007.38
2018-04-08T10:07:51.009Z,1007.31
2018-04-08T10:08:31.571Z,1007.4
2018-04-08T10:09:12.126Z,1007.31
2018-04-08T10:09:52.725Z,1007.27
2018-04-08T10:10:33.293Z,1007.26
2018-04-08T10:11:13.853Z,1007.26
2018-04-08T10:11:54.433Z,1007.26
2018-04-08T10:12:35.034Z,1007.23
2018-04-08T10:13:15.545Z,1007.38
2018-04-08T10:13:56.094Z,1007.36
2018-04-08T10:14:36.652Z,1007.31
2018-04-08T10:15:17.260Z,1007.36
2018-04-08T10:15:57.776Z,1007.3
2018-04-08T10:16:38.352Z,1007.26
2018-04-08T10:17:18.919Z,1007.27
2018-04-08T10:17:59.480Z,1007.37
2018-04-08T10:18:40.073Z,1007.29
2018-04-08T10:19:20.606Z,1007.26
2018-04-08T10:20:01.196Z,1007.16
2018-04-08T10:20:41.709Z,1007.21
2018-04-08T10:21:22.263Z,1007.12
2018-04-08T10:22:02.815Z,1007.16
2018-04-08T10:22:43.399Z,1007.14
2018-04-08T10:23:23.993Z,1007.26
2018-04-08T10:24:04.535Z,1007.17
2018-04-08T10:24:45.102Z,1007.13
2018-04-08T10:25:25.669Z,1007.22
2018-04-08T10:26:06.224Z,1007.12
2018-04-08T10:26:46.802Z,1007.1
2018-04-08T10:27:27.365Z,1007.14
2018-04-08T10:28:07.954Z,1007.11
2018-04-08T10:28:48.534Z,1007.15
2018-04-08T10:29:29.091Z,1007.11
2018-04-08T10:30:09.672Z,1007.13
2018-04-08T10:30:50.263Z,1007.14
2018-04-08T10:31:30.818Z,1007.12
2018-04-08T10:32:11.383Z,1007.11
2018-04-08T10:32:51.939Z,1007.1
2018-04-08T10:33:32.498Z,1007.1
2018-04-08T10:34:13.223Z,1007.11
2018-04-08T10:34:53.781Z,1007.05
2018-04-08T10:35:34.482Z,1007.05
2018-04-08T10:36:15.126Z,1007.06
2018-04-08T10:36:56.038Z,1007.01
2018-04-08T10:37:36.434Z,1007.09
2018-04-08T10:38:17.040Z,1007.04
2018-04-08T10:38:57.607Z,1007
2018-04-08T10:39:38.195Z,1006.97
2018-04-08T10:40:18.753Z,1007
2018-04-08T10:40:59.329Z,1006.92
2018-04-08T10:41:39.867Z,1006.97
2018-04-08T10:42:20.442Z,1006.95
2018-04-08T10:43:01.090Z,1006.95
2018-04-08T10:43:41.723Z,1006.97
2018-04-08T10:44:22.337Z,1006.94
2018-04-08T10:45:02.971Z,1007.04
2018-04-08T10:45:43.730Z,1006.93
2018-04-08T10:46:24.273Z,1007.05
2018-04-08T10:47:04.914Z,1007
2018-04-08T10:47:46.168Z,1007
2018-04-08T10:48:26.817Z,1006.94
2018-04-08T10:49:07.430Z,1006.88
2018-04-08T10:49:48.065Z,1006.98
2018-04-08T10:50:28.694Z,1006.91
2018-04-08T10:51:09.261Z,1006.95
2018-04-08T10:51:49.864Z,1006.98
2018-04-08T10:52:30.383Z,1006.91
2018-04-08T10:53:10.937Z,1006.9
2018-04-08T10:53:51.514Z,1006.91
2018-04-08T10:54:32.084Z,1006.83
2018-04-08T10:55:12.656Z,1006.81
2018-04-08T10:55:53.235Z,1006.86
2018-04-08T10:56:33.770Z,1006.89
2018-04-08T10:57:14.345Z,1006.89
2018-04-08T10:57:55.008Z,1006.92
2018-04-08T10:58:35.596Z,1006.8
2018-04-08T10:59:16.480Z,1006.85
2018-04-08T10:59:57.059Z,1006.78
2018-04-08T11:00:37.619Z,1006.79
2018-04-08T11:01:18.523Z,1006.78
2018-04-08T11:01:59.250Z,1006.83
2018-04-08T11:02:40.017Z,1006.81
2018-04-08T11:03:20.584Z,1006.76
2018-04-08T11:04:01.461Z,1006.8
2018-04-08T11:04:42.112Z,1006.71
2018-04-08T11:05:22.790Z,1006.81
2018-04-08T11:06:03.756Z,1006.81
2018-04-08T11:06:44.480Z,1006.8
2018-04-08T11:07:25.655Z,1006.83
2018-04-08T11:08:06.301Z,1006.7
2018-04-08T11:08:47.329Z,1006.8
2018-04-08T11:09:28.272Z,1006.75
2018-04-08T11:10:09.121Z,1006.82
2018-04-08T11:10:50.002Z,1006.67
2018-04-08T11:11:31.633Z,1006.73
2018-04-08T11:12:12.654Z,1006.77
2018-04-08T11:12:53.405Z,1006.77
2018-04-08T11:13:34.062Z,1006.72
2018-04-08T11:14:15.919Z,1006.69
2018-04-08T11:14:56.666Z,1006.71
2018-04-08T11:15:37.361Z,1006.75
2018-04-08T11:16:18.306Z,1006.73
2018-04-08T11:16:59.334Z,1006.75
2018-04-08T11:17:39.888Z,1006.67
2018-04-08T11:18:20.724Z,1006.76
2018-04-08T11:19:02.215Z,1006.75
2018-04-08T11:19:43.395Z,1006.74
2018-04-08T11:20:24.350Z,1006.69
2018-04-08T11:21:06.019Z,1006.63
2018-04-08T11:21:46.843Z,1006.73
2018-04-08T11:22:28.433Z,1006.78
2018-04-08T11:23:09.158Z,1006.75
2018-04-08T11:23:49.894Z,1006.69
2018-04-08T11:24:30.764Z,1006.77
2018-04-08T11:25:11.679Z,1006.71
2018-04-08T11:25:52.614Z,1006.7
2018-04-08T11:26:33.252Z,1006.7
2018-04-08T11:27:14.058Z,1006.73
2018-04-08T11:27:54.787Z,1006.74
2018-04-08T11:28:35.360Z,1006.63
2018-04-08T11:29:15.929Z,1006.67
2018-04-08T11:29:56.481Z,1006.64
2018-04-08T11:30:37.170Z,1006.66
2018-04-08T11:31:17.856Z,1006.73
2018-04-08T11:31:58.518Z,1006.67
2018-04-08T11:32:39.360Z,1006.76
2018-04-08T11:33:20.374Z,1006.7
2018-04-08T11:34:00.917Z,1006.67
2018-04-08T11:34:41.357Z,1006.7
2018-04-08T11:35:22.245Z,1006.74
2018-04-08T11:36:02.845Z,1006.68
2018-04-08T11:36:43.767Z,1006.66
2018-04-08T11:37:24.787Z,1006.63
2018-04-08T11:38:05.696Z,1006.79
2018-04-08T11:38:46.670Z,1006.74
2018-04-08T11:39:27.592Z,1006.68
2018-04-08T11:40:08.408Z,1006.79
2018-04-08T11:40:48.964Z,1006.64
2018-04-08T11:41:29.731Z,1006.6
2018-04-08T11:42:10.407Z,1006.61
2018-04-08T11:42:50.993Z,1006.59
2018-04-08T11:43:31.568Z,1006.59
2018-04-08T11:44:12.454Z,1006.58
2018-04-08T11:44:53.597Z,1006.59
2018-04-08T11:45:34.563Z,1006.52
2018-04-08T11:46:15.565Z,1006.51
2018-04-08T11:46:56.366Z,1006.55
2018-04-08T11:47:37.258Z,1006.47
2018-04-08T11:48:18.219Z,1006.51
2018-04-08T11:48:58.733Z,1006.49
2018-04-08T11:49:39.450Z,1006.53
2018-04-08T11:50:20.253Z,1006.46
2018-04-08T11:51:02.016Z,1006.5
2018-04-08T11:51:42.786Z,1006.6
2018-04-08T11:52:23.581Z,1006.53
2018-04-08T11:53:04.225Z,1006.55
2018-04-08T11:53:44.786Z,1006.48
2018-04-08T11:54:25.341Z,1006.46
2018-04-08T11:55:06.033Z,1006.44
2018-04-08T11:55:46.782Z,1006.41
2018-04-08T11:56:27.674Z,1006.41
2018-04-08T11:57:08.460Z,1006.4
2018-04-08T11:57:49.352Z,1006.39
2018-04-08T11:58:30.935Z,1006.41
2018-04-08T11:59:11.779Z,1006.46
2018-04-08T11:59:52.490Z,1006.44
2018-04-08T12:00:33.097Z,1006.42
2018-04-08T12:01:14.086Z,1006.43
2018-04-08T12:01:54.672Z,1006.39
2018-04-08T12:02:35.212Z,1006.41
2018-04-08T12:03:15.831Z,1006.4
2018-04-08T12:03:58.479Z,1006.38
2018-04-08T12:04:37.409Z,1006.39
2018-04-08T12:05:17.944Z,1006.4
2018-04-08T12:05:58.654Z,1006.34
2018-04-08T12:06:39.223Z,1006.34
2018-04-08T12:07:19.846Z,1006.34
2018-04-08T12:08:01.038Z,1006.35
2018-04-08T12:08:41.050Z,1006.35
2018-04-08T12:09:21.764Z,1006.3
2018-04-08T12:10:02.355Z,1006.33
2018-04-08T12:10:42.921Z,1006.35
2018-04-08T12:11:23.618Z,1006.31
2018-04-08T12:12:04.214Z,1006.36
2018-04-08T12:12:44.769Z,1006.27
2018-04-08T12:13:25.576Z,1006.4
2018-04-08T12:14:06.080Z,1006.34
2018-04-08T12:14:46.646Z,1006.41
2018-04-08T12:15:27.259Z,1006.29
2018-04-08T12:16:07.812Z,1006.34
2018-04-08T12:16:48.481Z,1006.31
2018-04-08T12:17:29.092Z,1006.27
2018-04-08T12:18:09.652Z,1006.3
2018-04-08T12:18:50.215Z,1006.33
2018-04-08T12:19:30.846Z,1006.23
2018-04-08T12:20:11.927Z,1006.27
2018-04-08T12:20:52.636Z,1006.33
2018-04-08T12:21:33.170Z,1006.3
2018-04-08T12:22:13.750Z,1006.36
2018-04-08T12:22:54.308Z,1006.27
2018-04-08T12:23:34.907Z,1006.31
2018-04-08T12:24:15.466Z,1006.32
2018-04-08T12:24:56.008Z,1006.3
2018-04-08T12:25:36.575Z,1006.31
2018-04-08T12:26:17.150Z,1006.36
2018-04-08T12:26:57.720Z,1006.31
2018-04-08T12:27:38.347Z,1006.3
2018-04-08T12:28:18.923Z,1006.24
2018-04-08T12:28:59.482Z,1006.29
2018-04-08T12:29:40.048Z,1006.32
2018-04-08T12:30:20.637Z,1006.3
2018-04-08T12:31:01.236Z,1006.36
2018-04-08T12:31:41.828Z,1006.26
2018-04-08T12:32:22.407Z,1006.2
2018-04-08T12:33:02.994Z,1006.25
2018-04-08T12:33:43.607Z,1006.21
2018-04-08T12:34:24.178Z,1006.2
2018-04-08T12:35:04.738Z,1006.22
2018-04-08T12:35:45.383Z,1006.22
2018-04-08T12:36:25.945Z,1006.24
2018-04-08T12:37:06.507Z,1006.23
2018-04-08T12:37:47.200Z,1006.21
2018-04-08T12:38:27.789Z,1006.26
2018-04-08T12:39:08.489Z,1006.21
2018-04-08T12:39:49.071Z,1006.15
2018-04-08T12:40:29.645Z,1006.14
2018-04-08T12:41:10.216Z,1006.15
2018-04-08T12:41:50.822Z,1006.14
2018-04-08T12:42:31.388Z,1006.23
2018-04-08T12:43:11.965Z,1006.02
2018-04-08T12:43:52.550Z,1006.11
2018-04-08T12:44:33.099Z,1006.06
2018-04-08T12:45:13.711Z,1006.05
2018-04-08T12:45:54.285Z,1006.07
2018-04-08T12:46:34.855Z,1006.2
2018-04-08T12:47:15.621Z,1006.28
2018-04-08T12:47:56.165Z,1006.15
2018-04-08T12:48:36.763Z,1006.17
2018-04-08T12:49:17.441Z,1006.19
2018-04-08T12:49:58.006Z,1006.1
2018-04-08T12:50:38.554Z,1006.05
2018-04-08T12:51:19.189Z,1006.03
2018-04-08T12:51:59.785Z,1006.01
2018-04-08T12:52:40.624Z,1006.06
2018-04-08T12:53:20.978Z,1006.02
2018-04-08T12:54:01.591Z,1006.14
2018-04-08T12:54:42.170Z,1006.12
2018-04-08T12:55:22.773Z,1006.1
2018-04-08T12:56:03.338Z,1006.08
2018-04-08T12:56:43.909Z,1006.06
2018-04-08T12:57:24.542Z,1006.07
2018-04-08T12:58:05.101Z,1006.04
2018-04-08T12:58:45.684Z,1006.04
2018-04-08T12:59:26.252Z,1006.02
2018-04-08T13:00:06.812Z,1005.97
2018-04-08T13:00:47.362Z,1006.07
2018-04-08T13:01:27.916Z,1005.96
2018-04-08T13:02:08.530Z,1005.97
2018-04-08T13:02:49.101Z,1006.08
2018-04-08T13:03:29.669Z,1006.04
2018-04-08T13:04:10.217Z,1005.99
2018-04-08T13:04:50.785Z,1005.96
2018-04-08T13:05:31.351Z,1006.06
2018-04-08T13:06:12.043Z,1005.96
2018-04-08T13:06:52.608Z,1006.02
2018-04-08T13:07:33.173Z,1005.96
2018-04-08T13:08:13.783Z,1005.82
2018-04-08T13:08:54.341Z,1005.97
2018-04-08T13:09:34.902Z,1005.87
2018-04-08T13:10:15.609Z,1005.88
2018-04-08T13:10:56.170Z,1005.87
2018-04-08T13:11:36.733Z,1005.81
2018-04-08T13:12:17.431Z,1005.89
2018-04-08T13:12:58.122Z,1005.89
2018-04-08T13:13:38.684Z,1005.86
2018-04-08T13:14:19.255Z,1005.77
2018-04-08T13:14:59.809Z,1005.82
2018-04-08T13:15:40.531Z,1005.81
2018-04-08T13:16:21.189Z,1005.92
2018-04-08T13:17:01.698Z,1005.83
2018-04-08T13:17:42.268Z,1005.93
2018-04-08T13:18:22.852Z,1005.85
2018-04-08T13:19:03.376Z,1005.91
2018-04-08T13:19:43.952Z,1005.83
2018-04-08T13:20:24.536Z,1005.83
2018-04-08T13:21:05.124Z,1005.87
2018-04-08T13:21:45.665Z,1005.78
2018-04-08T13:22:26.238Z,1005.92
2018-04-08T13:23:06.846Z,1005.85
2018-04-08T13:23:47.406Z,1005.89
2018-04-08T13:24:27.970Z,1005.91
2018-04-08T13:25:08.559Z,1005.86
2018-04-08T13:25:49.164Z,1005.82
2018-04-08T13:26:29.720Z,1005.86
2018-04-08T13:27:10.286Z,1005.85
2018-04-08T13:27:50.843Z,1005.84
2018-04-08T13:28:31.395Z,1005.88
2018-04-08T13:29:11.985Z,1005.81
2018-04-08T13:29:52.517Z,1005.77
2018-04-08T13:30:33.083Z,1005.78
2018-04-08T13:31:13.606Z,1005.86
2018-04-08T13:31:54.187Z,1005.82
2018-04-08T13:32:34.770Z,1005.78
2018-04-08T13:33:15.360Z,1005.83
2018-04-08T13:33:55.986Z,1005.79
2018-04-08T13:34:36.507Z,1005.78
2018-04-08T13:35:17.089Z,1005.83
2018-04-08T13:35:57.704Z,1005.81
2018-04-08T13:36:38.274Z,1005.74
2018-04-08T13:37:18.845Z,1005.71
2018-04-08T13:37:59.421Z,1005.71
2018-04-08T13:38:39.977Z,1005.73
2018-04-08T13:39:20.542Z,1005.69
2018-04-08T13:40:01.108Z,1005.73
2018-04-08T13:40:41.709Z,1005.7
2018-04-08T13:41:22.277Z,1005.66
2018-04-08T13:42:02.838Z,1005.62
2018-04-08T13:42:43.849Z,1005.74
2018-04-08T13:43:24.512Z,1005.69
2018-04-08T13:44:06.292Z,1005.66
2018-04-08T13:44:46.954Z,1005.66
2018-04-08T13:45:27.536Z,1005.63
2018-04-08T13:46:08.220Z,1005.59
2018-04-08T13:46:48.808Z,1005.67
2018-04-08T13:47:29.543Z,1005.69
2018-04-08T13:48:10.417Z,1005.66
2018-04-08T13:48:51.010Z,1005.66
2018-04-08T13:49:31.584Z,1005.61
2018-04-08T13:50:12.258Z,1005.63
2018-04-08T13:50:52.832Z,1005.63
2018-04-08T13:51:33.401Z,1005.62
2018-04-08T13:52:13.952Z,1005.62
2018-04-08T13:52:54.522Z,1005.63
2018-04-08T13:53:35.099Z,1005.59
2018-04-08T13:54:15.661Z,1005.54
2018-04-08T13:54:56.234Z,1005.51
2018-04-08T13:55:36.857Z,1005.5
2018-04-08T13:56:17.446Z,1005.42
2018-04-08T13:56:58.034Z,1005.52
2018-04-08T13:57:38.587Z,1005.51
2018-04-08T13:58:19.141Z,1005.56
2018-04-08T13:58:59.690Z,1005.53
2018-04-08T13:59:40.266Z,1005.46
2018-04-08T14:00:20.959Z,1005.55
2018-04-08T14:01:01.936Z,1005.54
2018-04-08T14:01:42.444Z,1005.52
2018-04-08T14:02:23.020Z,1005.5
2018-04-08T14:03:03.638Z,1005.51
2018-04-08T14:03:44.219Z,1005.48
2018-04-08T14:04:24.775Z,1005.45
2018-04-08T14:05:05.421Z,1005.49
2018-04-08T14:05:46.041Z,1005.45
2018-04-08T14:06:26.611Z,1005.51
2018-04-08T14:07:07.204Z,1005.45
2018-04-08T14:07:47.769Z,1005.47
2018-04-08T14:08:28.343Z,1005.46
2018-04-08T14:09:08.922Z,1005.46
2018-04-08T14:09:49.484Z,1005.47
2018-04-08T14:10:30.076Z,1005.42
2018-04-08T14:11:10.715Z,1005.46
2018-04-08T14:11:51.179Z,1005.49
2018-04-08T14:12:31.731Z,1005.39
2018-04-08T14:13:12.344Z,1005.41
2018-04-08T14:13:52.906Z,1005.46
2018-04-08T14:14:33.485Z,1005.5
2018-04-08T14:15:14.227Z,1005.4
2018-04-08T14:15:54.802Z,1005.45
2018-04-08T14:16:35.354Z,1005.41
2018-04-08T14:17:15.975Z,1005.44
2018-04-08T14:17:56.592Z,1005.43
2018-04-08T14:18:37.260Z,1005.4
2018-04-08T14:19:18.015Z,1005.37
2018-04-08T14:19:58.667Z,1005.39
2018-04-08T14:20:39.313Z,1005.34
2018-04-08T14:21:19.888Z,1005.37
2018-04-08T14:22:00.565Z,1005.34
2018-04-08T14:22:41.135Z,1005.33
2018-04-08T14:23:21.683Z,1005.32
2018-04-08T14:24:02.267Z,1005.28
2018-04-08T14:24:42.907Z,1005.4
2018-04-08T14:25:23.406Z,1005.4
2018-04-08T14:26:03.997Z,1005.36
2018-04-08T14:26:44.599Z,1005.38
2018-04-08T14:27:25.549Z,1005.38
2018-04-08T14:28:06.272Z,1005.38
2018-04-08T14:28:46.793Z,1005.35
2018-04-08T14:29:27.376Z,1005.35
2018-04-08T14:30:08.001Z,1005.35
2018-04-08T14:30:48.608Z,1005.3
2018-04-08T14:31:29.211Z,1005.32
2018-04-08T14:32:09.777Z,1005.27
2018-04-08T14:32:50.333Z,1005.28
2018-04-08T14:33:30.948Z,1005.28